createdAt,value
2017-05-25T00:00:26.676Z,0
2017-05-25T00:01:36.933Z,0
2017-05-25T00:02:47.192Z,0
2017-05-25T00:03:57.151Z,0
2017-05-25T00:05:07.162Z,0
2017-05-25T00:06:17.727Z,0
2017-05-25T00:07:27.993Z,0
2017-05-25T00:08:38.263Z,0
2017-05-25T00:09:48.224Z,0
2017-05-25T00:10:58.501Z,0
2017-05-25T00:12:08.340Z,0
2017-05-25T00:13:18.609Z,0
2017-05-25T00:14:28.877Z,0
2017-05-25T00:15:39.137Z,0
2017-05-25T00:16:49.399Z,0
2017-05-25T00:17:59.912Z,0
2017-05-25T00:19:10.175Z,0
2017-05-25T00:20:20.441Z,0
2017-05-25T00:21:30.075Z,0
2017-05-25T00:22:39.739Z,0
2017-05-25T00:23:50.272Z,0
2017-05-25T00:25:00.223Z,0
2017-05-25T00:26:10.174Z,0
2017-05-25T00:27:20.635Z,0
2017-05-25T00:28:30.283Z,0
2017-05-25T00:29:40.530Z,0
2017-05-25T00:30:50.477Z,0
2017-05-25T00:32:00.746Z,0
2017-05-25T00:33:10.387Z,0
2017-05-25T00:34:20.654Z,0
2017-05-25T00:35:31.171Z,0
2017-05-25T00:36:41.437Z,0
2017-05-25T00:37:51.072Z,0
2017-05-25T00:39:01.022Z,0
2017-05-25T00:40:10.970Z,0
2017-05-25T00:41:21.221Z,0
2017-05-25T00:42:31.483Z,0
2017-05-25T00:43:41.754Z,0
2017-05-25T00:44:52.025Z,0
2017-05-25T00:46:01.972Z,0
2017-05-25T00:47:12.436Z,0
2017-05-25T00:48:22.703Z,0
2017-05-25T00:49:32.974Z,0
2017-05-25T00:50:42.925Z,0
2017-05-25T00:51:53.190Z,0
2017-05-25T00:53:05.391Z,0
2017-05-25T00:54:15.654Z,0
2017-05-25T00:55:25.607Z,0
2017-05-25T00:56:35.867Z,0
2017-05-25T00:57:46.134Z,0
2017-05-25T00:58:56.283Z,0
2017-05-25T01:00:06.615Z,0
2017-05-25T01:01:16.881Z,0
2017-05-25T01:02:26.833Z,0
2017-05-25T01:03:37.101Z,0
2017-05-25T01:04:47.616Z,0
2017-05-25T01:05:57.876Z,0
2017-05-25T01:07:07.518Z,0
2017-05-25T01:08:17.785Z,0
2017-05-25T01:09:28.058Z,0
2017-05-25T01:10:38.619Z,0
2017-05-25T01:11:48.880Z,0
2017-05-25T01:12:59.143Z,0
2017-05-25T01:14:09.095Z,0
2017-05-25T01:15:19.357Z,0
2017-05-25T01:16:29.661Z,0
2017-05-25T01:17:39.616Z,0
2017-05-25T01:18:49.892Z,0
2017-05-25T01:19:59.850Z,0
2017-05-25T01:21:10.125Z,0
2017-05-25T01:22:22.378Z,0
2017-05-25T01:23:32.641Z,0
2017-05-25T01:24:42.904Z,0
2017-05-25T01:25:53.165Z,0
2017-05-25T01:27:03.115Z,0
2017-05-25T01:28:13.628Z,0
2017-05-25T01:29:23.268Z,0
2017-05-25T01:30:33.552Z,0
2017-05-25T01:31:43.504Z,0
2017-05-25T01:32:53.772Z,0
2017-05-25T01:34:03.921Z,0
2017-05-25T01:35:13.871Z,0
2017-05-25T01:36:23.827Z,0
2017-05-25T01:37:34.088Z,0
2017-05-25T01:38:44.043Z,0
2017-05-25T01:39:54.250Z,0
2017-05-25T01:41:04.200Z,0
2017-05-25T01:42:14.463Z,0
2017-05-25T01:43:24.732Z,0
2017-05-25T01:44:34.994Z,0
2017-05-25T01:45:45.192Z,0
2017-05-25T01:46:55.142Z,0
2017-05-25T01:48:05.144Z,0
2017-05-25T01:49:15.093Z,0
2017-05-25T01:50:25.040Z,0
2017-05-25T01:51:35.605Z,0
2017-05-25T01:52:45.570Z,0
2017-05-25T01:53:55.852Z,0
2017-05-25T01:55:06.125Z,0
2017-05-25T01:56:16.382Z,0
2017-05-25T01:57:26.895Z,5
2017-05-25T01:58:36.846Z,5
2017-05-25T01:59:47.115Z,5
2017-05-25T02:00:56.751Z,5
2017-05-25T02:02:06.706Z,5
2017-05-25T02:03:16.955Z,5
2017-05-25T02:04:27.220Z,5
2017-05-25T02:05:37.488Z,5
2017-05-25T02:06:47.753Z,5
2017-05-25T02:07:58.024Z,5
2017-05-25T02:09:08.598Z,5
2017-05-25T02:10:18.854Z,5
2017-05-25T02:11:28.813Z,5
2017-05-25T02:12:39.083Z,5
2017-05-25T02:13:49.350Z,10
2017-05-25T02:14:59.864Z,10
2017-05-25T02:16:09.821Z,10
2017-05-25T02:17:20.092Z,10
2017-05-25T02:18:30.049Z,10
2017-05-25T02:19:40.311Z,10
2017-05-25T02:20:50.149Z,10
2017-05-25T02:22:00.105Z,15
2017-05-25T02:23:10.372Z,15
2017-05-25T02:24:20.321Z,15
2017-05-25T02:25:29.954Z,15
2017-05-25T02:26:40.201Z,15
2017-05-25T02:27:50.148Z,15
2017-05-25T02:29:00.093Z,15
2017-05-25T02:30:10.044Z,15
2017-05-25T02:31:20.004Z,20
2017-05-25T02:32:30.507Z,20
2017-05-25T02:33:40.805Z,20
2017-05-25T02:34:51.068Z,20
2017-05-25T02:36:01.324Z,20
2017-05-25T02:37:11.587Z,20
2017-05-25T02:38:22.156Z,20
2017-05-25T02:39:32.415Z,25
2017-05-25T02:40:42.054Z,25
2017-05-25T02:41:52.003Z,25
2017-05-25T02:43:02.266Z,25
2017-05-25T02:44:14.532Z,25
2017-05-25T02:45:24.794Z,25
2017-05-25T02:46:34.428Z,25
2017-05-25T02:47:44.696Z,30
2017-05-25T02:48:54.962Z,30
2017-05-25T02:50:04.909Z,30
2017-05-25T02:51:14.862Z,30
2017-05-25T02:52:24.825Z,30
2017-05-25T02:53:35.093Z,35
2017-05-25T02:54:45.353Z,35
2017-05-25T02:55:55.679Z,35
2017-05-25T02:57:05.307Z,40
2017-05-25T02:58:15.282Z,40
2017-05-25T02:59:25.547Z,40
2017-05-25T03:00:35.813Z,40
2017-05-25T03:01:46.077Z,40
2017-05-25T03:02:56.340Z,45
2017-05-25T03:04:06.285Z,45
2017-05-25T03:05:16.235Z,45
2017-05-25T03:06:26.501Z,45
2017-05-25T03:07:36.774Z,45
2017-05-25T03:08:47.039Z,50
2017-05-25T03:09:57.319Z,50
2017-05-25T03:11:07.588Z,50
2017-05-25T03:12:17.531Z,50
2017-05-25T03:13:27.482Z,50
2017-05-25T03:14:37.747Z,55
2017-05-25T03:15:48.054Z,55
2017-05-25T03:16:57.690Z,60
2017-05-25T03:18:07.334Z,65
2017-05-25T03:19:17.279Z,65
2017-05-25T03:20:27.541Z,65
2017-05-25T03:21:37.814Z,65
2017-05-25T03:22:48.074Z,65
2017-05-25T03:23:57.716Z,75
2017-05-25T03:25:07.353Z,70
2017-05-25T03:26:17.302Z,65
2017-05-25T03:27:27.567Z,65
2017-05-25T03:28:37.212Z,70
2017-05-25T03:29:47.467Z,70
2017-05-25T03:30:57.113Z,70
2017-05-25T03:32:06.744Z,70
2017-05-25T03:33:16.379Z,70
2017-05-25T03:34:26.324Z,70
2017-05-25T03:35:36.581Z,70
2017-05-25T03:36:46.842Z,70
2017-05-25T03:37:56.794Z,70
2017-05-25T03:39:07.053Z,70
2017-05-25T03:40:16.683Z,70
2017-05-25T03:41:26.628Z,75
2017-05-25T03:42:36.624Z,75
2017-05-25T03:43:46.896Z,75
2017-05-25T03:44:56.851Z,80
2017-05-25T03:46:07.109Z,80
2017-05-25T03:47:17.375Z,80
2017-05-25T03:48:27.332Z,80
2017-05-25T03:49:37.597Z,80
2017-05-25T03:50:47.859Z,80
2017-05-25T03:51:58.120Z,85
2017-05-25T03:53:08.387Z,85
2017-05-25T03:54:18.645Z,85
2017-05-25T03:55:28.290Z,85
2017-05-25T03:56:38.244Z,85
2017-05-25T03:57:48.515Z,85
2017-05-25T03:58:58.462Z,85
2017-05-25T04:00:08.742Z,85
2017-05-25T04:01:18.685Z,85
2017-05-25T04:02:28.632Z,85
2017-05-25T04:03:38.907Z,85
2017-05-25T04:04:49.175Z,85
2017-05-25T04:05:59.120Z,90
2017-05-25T04:07:09.383Z,90
2017-05-25T04:08:19.646Z,90
2017-05-25T04:09:29.906Z,90
2017-05-25T04:10:39.847Z,95
2017-05-25T04:11:49.797Z,105
2017-05-25T04:13:00.097Z,110
2017-05-25T04:14:10.044Z,115
2017-05-25T04:15:19.983Z,125
2017-05-25T04:16:30.242Z,130
2017-05-25T04:17:40.499Z,135
2017-05-25T04:18:50.767Z,135
2017-05-25T04:20:00.729Z,130
2017-05-25T04:21:10.989Z,125
2017-05-25T04:22:21.249Z,120
2017-05-25T04:23:31.514Z,120
2017-05-25T04:24:41.779Z,120
2017-05-25T04:25:52.044Z,125
2017-05-25T04:27:02.304Z,125
2017-05-25T04:28:12.565Z,130
2017-05-25T04:29:22.523Z,130
2017-05-25T04:30:32.784Z,130
2017-05-25T04:31:43.050Z,125
2017-05-25T04:32:53.316Z,120
2017-05-25T04:34:03.267Z,120
2017-05-25T04:35:12.601Z,125
2017-05-25T04:36:22.554Z,115
2017-05-25T04:37:32.825Z,115
2017-05-25T04:38:43.088Z,110
2017-05-25T04:39:53.051Z,110
2017-05-25T04:41:03.007Z,105
2017-05-25T04:42:13.270Z,100
2017-05-25T04:43:22.904Z,100
2017-05-25T04:44:33.170Z,100
2017-05-25T04:45:42.801Z,105
2017-05-25T04:46:52.754Z,115
2017-05-25T04:48:03.020Z,120
2017-05-25T04:49:13.285Z,120
2017-05-25T04:50:23.241Z,125
2017-05-25T04:51:33.496Z,130
2017-05-25T04:52:43.810Z,135
2017-05-25T04:53:54.069Z,140
2017-05-25T04:55:04.021Z,140
2017-05-25T04:56:14.283Z,145
2017-05-25T04:57:24.239Z,150
2017-05-25T04:58:37.529Z,170
2017-05-25T04:59:47.794Z,170
2017-05-25T05:00:58.073Z,175
2017-05-25T05:02:07.391Z,170
2017-05-25T05:03:17.339Z,170
2017-05-25T05:04:27.601Z,160
2017-05-25T05:05:37.241Z,175
2017-05-25T05:06:47.501Z,170
2017-05-25T05:07:57.768Z,150
2017-05-25T05:09:07.711Z,155
2017-05-25T05:10:17.657Z,170
2017-05-25T05:11:27.916Z,175
2017-05-25T05:12:37.867Z,175
2017-05-25T05:13:47.812Z,170
2017-05-25T05:14:57.758Z,175
2017-05-25T05:16:07.710Z,170
2017-05-25T05:17:17.346Z,170
2017-05-25T05:18:27.294Z,160
2017-05-25T05:19:37.566Z,160
2017-05-25T05:20:47.509Z,180
2017-05-25T05:21:57.774Z,190
2017-05-25T05:23:07.722Z,195
2017-05-25T05:24:17.665Z,200
2017-05-25T05:25:27.927Z,205
2017-05-25T05:26:38.191Z,205
2017-05-25T05:27:48.460Z,215
2017-05-25T05:28:58.415Z,220
2017-05-25T05:30:08.364Z,220
2017-05-25T05:31:18.627Z,225
2017-05-25T05:32:28.887Z,215
2017-05-25T05:33:38.844Z,220
2017-05-25T05:34:49.105Z,205
2017-05-25T05:35:59.363Z,220
2017-05-25T05:37:09.310Z,245
2017-05-25T05:38:19.568Z,260
2017-05-25T05:39:29.831Z,255
2017-05-25T05:40:40.093Z,265
2017-05-25T05:41:50.355Z,270
2017-05-25T05:43:00.305Z,255
2017-05-25T05:44:09.940Z,260
2017-05-25T05:45:19.583Z,270
2017-05-25T05:46:29.846Z,270
2017-05-25T05:47:40.110Z,280
2017-05-25T05:48:50.059Z,275
2017-05-25T05:50:00.331Z,285
2017-05-25T05:51:10.606Z,285
2017-05-25T05:52:20.872Z,300
2017-05-25T05:53:31.144Z,300
2017-05-25T05:54:40.781Z,320
2017-05-25T05:55:51.041Z,310
2017-05-25T05:57:01.304Z,295
2017-05-25T05:58:11.259Z,290
2017-05-25T05:59:20.897Z,285
2017-05-25T06:00:30.840Z,290
2017-05-25T06:01:40.797Z,300
2017-05-25T06:02:51.059Z,300
2017-05-25T06:04:01.322Z,305
2017-05-25T06:05:10.962Z,315
2017-05-25T06:06:20.608Z,325
2017-05-25T06:07:30.881Z,320
2017-05-25T06:08:40.522Z,320
2017-05-25T06:09:50.799Z,325
2017-05-25T06:11:01.081Z,325
2017-05-25T06:12:11.034Z,320
2017-05-25T06:13:20.672Z,315
2017-05-25T06:14:30.945Z,315
2017-05-25T06:15:40.583Z,320
2017-05-25T06:16:50.853Z,330
2017-05-25T06:18:00.799Z,325
2017-05-25T06:19:10.746Z,315
2017-05-25T06:20:20.704Z,310
2017-05-25T06:21:30.658Z,310
2017-05-25T06:22:40.604Z,305
2017-05-25T06:23:50.556Z,305
2017-05-25T06:25:00.821Z,310
2017-05-25T06:26:10.770Z,320
2017-05-25T06:27:21.037Z,340
2017-05-25T06:28:30.998Z,335
2017-05-25T06:29:40.946Z,330
2017-05-25T06:30:50.582Z,315
2017-05-25T06:32:00.545Z,300
2017-05-25T06:33:10.814Z,285
2017-05-25T06:34:21.083Z,295
2017-05-25T06:35:31.349Z,320
2017-05-25T06:36:41.617Z,330
2017-05-25T06:37:51.893Z,320
2017-05-25T06:39:02.155Z,300
2017-05-25T06:40:12.106Z,285
2017-05-25T06:41:22.057Z,275
2017-05-25T06:42:32.322Z,265
2017-05-25T06:43:42.593Z,270
2017-05-25T06:44:52.867Z,285
2017-05-25T06:46:02.833Z,300
2017-05-25T06:47:12.780Z,315
2017-05-25T06:48:22.420Z,325
2017-05-25T06:49:32.387Z,330
2017-05-25T06:50:42.342Z,335
2017-05-25T06:51:52.615Z,335
2017-05-25T06:53:02.887Z,335
2017-05-25T06:54:12.216Z,335
2017-05-25T06:55:22.493Z,335
2017-05-25T06:56:32.451Z,340
2017-05-25T06:57:42.718Z,340
2017-05-25T06:58:52.983Z,340
2017-05-25T07:00:08.285Z,335
2017-05-25T07:01:18.557Z,315
2017-05-25T07:02:28.508Z,295
2017-05-25T07:03:38.781Z,300
2017-05-25T07:04:49.050Z,320
2017-05-25T07:05:59.321Z,340
2017-05-25T07:07:09.588Z,350
2017-05-25T07:08:18.915Z,365
2017-05-25T07:09:28.873Z,375
2017-05-25T07:10:39.136Z,370
2017-05-25T07:11:49.405Z,365
2017-05-25T07:12:59.678Z,360
2017-05-25T07:14:09.627Z,350
2017-05-25T07:15:19.893Z,320
2017-05-25T07:16:30.160Z,280
2017-05-25T07:17:40.121Z,260
2017-05-25T07:18:50.394Z,270
2017-05-25T07:20:00.660Z,290
2017-05-25T07:21:10.934Z,285
2017-05-25T07:22:20.955Z,275
2017-05-25T07:23:31.223Z,275
2017-05-25T07:24:41.496Z,275
2017-05-25T07:25:51.452Z,280
2017-05-25T07:27:01.717Z,300
2017-05-25T07:28:11.359Z,325
2017-05-25T07:29:21.631Z,345
2017-05-25T07:30:31.899Z,390
2017-05-25T07:31:41.859Z,430
2017-05-25T07:32:52.125Z,465
2017-05-25T07:34:02.401Z,465
2017-05-25T07:35:12.352Z,435
2017-05-25T07:36:22.309Z,420
2017-05-25T07:37:32.573Z,465
2017-05-25T07:38:42.213Z,520
2017-05-25T07:39:52.182Z,530
2017-05-25T07:41:02.442Z,510
2017-05-25T07:42:12.398Z,455
2017-05-25T07:43:22.673Z,425
2017-05-25T07:44:32.958Z,400
2017-05-25T07:45:43.282Z,360
2017-05-25T07:46:53.547Z,360
2017-05-25T07:48:03.816Z,380
2017-05-25T07:49:13.778Z,405
2017-05-25T07:50:24.045Z,410
2017-05-25T07:51:34.317Z,425
2017-05-25T07:52:44.270Z,440
2017-05-25T07:53:54.232Z,455
2017-05-25T07:55:04.507Z,470
2017-05-25T07:56:14.777Z,480
2017-05-25T07:57:24.744Z,485
2017-05-25T07:58:34.695Z,470
2017-05-25T07:59:44.664Z,485
2017-05-25T08:00:54.939Z,495
2017-05-25T08:02:05.216Z,495
2017-05-25T08:03:14.545Z,495
2017-05-25T08:04:24.506Z,490
2017-05-25T08:05:34.781Z,465
2017-05-25T08:06:44.739Z,455
2017-05-25T08:07:54.389Z,470
2017-05-25T08:09:04.341Z,470
2017-05-25T08:10:14.292Z,455
2017-05-25T08:11:23.934Z,455
2017-05-25T08:12:34.204Z,460
2017-05-25T08:13:44.187Z,490
2017-05-25T08:14:54.149Z,520
2017-05-25T08:16:04.422Z,520
2017-05-25T08:17:14.694Z,520
2017-05-25T08:18:24.660Z,510
2017-05-25T08:19:34.615Z,495
2017-05-25T08:20:44.568Z,490
2017-05-25T08:21:54.840Z,535
2017-05-25T08:23:05.111Z,525
2017-05-25T08:24:14.752Z,475
2017-05-25T08:25:24.712Z,460
2017-05-25T08:26:34.976Z,490
2017-05-25T08:27:45.244Z,495
2017-05-25T08:28:55.520Z,470
2017-05-25T08:30:05.799Z,470
2017-05-25T08:31:16.067Z,475
2017-05-25T08:32:26.403Z,505
2017-05-25T08:33:36.686Z,565
2017-05-25T08:34:46.953Z,545
2017-05-25T08:35:57.216Z,530
2017-05-25T08:37:07.498Z,515
2017-05-25T08:38:17.459Z,505
2017-05-25T08:39:27.731Z,480
2017-05-25T08:40:37.695Z,490
2017-05-25T08:41:47.961Z,515
2017-05-25T08:42:58.240Z,500
2017-05-25T08:44:08.511Z,495
2017-05-25T08:45:18.471Z,420
2017-05-25T08:46:28.429Z,365
2017-05-25T08:47:38.693Z,360
2017-05-25T08:48:48.658Z,380
2017-05-25T08:49:58.934Z,400
2017-05-25T08:51:08.892Z,420
2017-05-25T08:52:19.177Z,475
2017-05-25T08:53:29.454Z,515
2017-05-25T08:54:39.732Z,540
2017-05-25T08:55:49.683Z,580
2017-05-25T08:56:59.952Z,620
2017-05-25T08:58:10.226Z,625
2017-05-25T08:59:20.508Z,620
2017-05-25T09:00:30.466Z,605
2017-05-25T09:01:40.735Z,595
2017-05-25T09:02:51.007Z,600
2017-05-25T09:04:00.976Z,620
2017-05-25T09:05:10.936Z,605
2017-05-25T09:06:20.898Z,580
2017-05-25T09:07:30.856Z,595
2017-05-25T09:08:41.136Z,620
2017-05-25T09:09:51.095Z,615
2017-05-25T09:11:00.429Z,530
2017-05-25T09:12:10.708Z,460
2017-05-25T09:13:20.667Z,395
2017-05-25T09:14:30.316Z,390
2017-05-25T09:15:40.584Z,405
2017-05-25T09:16:50.853Z,395
2017-05-25T09:18:00.811Z,375
2017-05-25T09:19:11.082Z,375
2017-05-25T09:20:21.353Z,465
2017-05-25T09:21:31.621Z,600
2017-05-25T09:22:41.584Z,640
2017-05-25T09:23:51.852Z,555
2017-05-25T09:25:01.810Z,535
2017-05-25T09:26:11.463Z,575
2017-05-25T09:27:21.422Z,610
2017-05-25T09:28:31.691Z,685
2017-05-25T09:29:41.656Z,730
2017-05-25T09:30:51.926Z,730
2017-05-25T09:32:02.198Z,755
2017-05-25T09:33:12.475Z,745
2017-05-25T09:34:22.122Z,725
2017-05-25T09:35:32.083Z,720
2017-05-25T09:36:42.367Z,720
2017-05-25T09:37:52.636Z,705
2017-05-25T09:39:02.603Z,685
2017-05-25T09:40:12.559Z,645
2017-05-25T09:41:22.837Z,645
2017-05-25T09:42:33.113Z,630
2017-05-25T09:43:43.390Z,685
2017-05-25T09:44:53.350Z,735
2017-05-25T09:46:03.623Z,740
2017-05-25T09:47:13.581Z,750
2017-05-25T09:48:23.228Z,705
2017-05-25T09:49:33.187Z,720
2017-05-25T09:50:43.466Z,725
2017-05-25T09:51:53.434Z,705
2017-05-25T09:53:03.716Z,690
2017-05-25T09:54:13.990Z,705
2017-05-25T09:55:23.636Z,730
2017-05-25T09:56:33.923Z,700
2017-05-25T09:57:44.202Z,680
2017-05-25T09:58:54.489Z,690
2017-05-25T10:00:04.763Z,710
2017-05-25T10:01:14.410Z,750
2017-05-25T10:02:24.424Z,780
2017-05-25T10:03:34.390Z,795
2017-05-25T10:04:44.682Z,820
2017-05-25T10:05:54.955Z,845
2017-05-25T10:07:05.230Z,845
2017-05-25T10:08:15.191Z,865
2017-05-25T10:09:25.146Z,835
2017-05-25T10:10:35.110Z,745
2017-05-25T10:11:45.384Z,575
2017-05-25T10:12:55.028Z,435
2017-05-25T10:14:05.303Z,360
2017-05-25T10:15:14.949Z,380
2017-05-25T10:16:25.214Z,375
2017-05-25T10:17:35.483Z,400
2017-05-25T10:18:45.760Z,485
2017-05-25T10:19:55.412Z,560
2017-05-25T10:21:05.684Z,640
2017-05-25T10:22:15.967Z,700
2017-05-25T10:23:25.616Z,610
2017-05-25T10:24:35.902Z,575
2017-05-25T10:25:46.183Z,585
2017-05-25T10:26:56.141Z,595
2017-05-25T10:28:06.423Z,570
2017-05-25T10:29:16.377Z,690
2017-05-25T10:30:26.022Z,780
2017-05-25T10:31:36.300Z,820
2017-05-25T10:32:46.579Z,800
2017-05-25T10:33:56.859Z,700
2017-05-25T10:35:07.129Z,545
2017-05-25T10:36:17.089Z,445
2017-05-25T10:37:27.048Z,380
2017-05-25T10:38:37.328Z,395
2017-05-25T10:39:47.606Z,395
2017-05-25T10:40:57.564Z,335
2017-05-25T10:42:07.847Z,340
2017-05-25T10:43:17.488Z,360
2017-05-25T10:44:27.458Z,345
2017-05-25T10:45:37.734Z,350
2017-05-25T10:46:47.692Z,360
2017-05-25T10:47:57.985Z,360
2017-05-25T10:49:08.260Z,345
2017-05-25T10:50:18.220Z,355
2017-05-25T10:51:27.289Z,380
2017-05-25T10:52:37.566Z,425
2017-05-25T10:53:47.214Z,405
2017-05-25T10:54:57.485Z,335
2017-05-25T10:56:07.436Z,335
2017-05-25T10:57:17.410Z,355
2017-05-25T10:58:27.689Z,375
2017-05-25T10:59:37.961Z,305
2017-05-25T11:00:47.920Z,325
2017-05-25T11:01:57.875Z,330
2017-05-25T11:03:07.533Z,335
2017-05-25T11:04:17.806Z,330
2017-05-25T11:05:27.765Z,340
2017-05-25T11:06:37.717Z,370
2017-05-25T11:07:47.992Z,365
2017-05-25T11:08:58.266Z,345
2017-05-25T11:10:08.537Z,365
2017-05-25T11:11:18.179Z,360
2017-05-25T11:12:28.144Z,405
2017-05-25T11:13:38.100Z,365
2017-05-25T11:14:48.068Z,340
2017-05-25T11:15:58.339Z,355
2017-05-25T11:17:08.296Z,370
2017-05-25T11:18:18.568Z,380
2017-05-25T11:19:27.896Z,380
2017-05-25T11:20:38.170Z,395
2017-05-25T11:21:48.441Z,420
2017-05-25T11:22:58.713Z,420
2017-05-25T11:24:08.036Z,435
2017-05-25T11:25:18.308Z,455
2017-05-25T11:26:28.265Z,465
2017-05-25T11:27:38.533Z,475
2017-05-25T11:28:48.813Z,515
2017-05-25T11:29:58.484Z,1185
2017-05-25T11:31:08.439Z,2240
2017-05-25T11:32:18.080Z,2260
2017-05-25T11:33:28.038Z,2260
2017-05-25T11:34:38.310Z,2635
2017-05-25T11:35:48.584Z,2710
2017-05-25T11:36:58.857Z,2705
2017-05-25T11:38:09.146Z,2810
2017-05-25T11:39:18.798Z,2795
2017-05-25T11:40:29.074Z,2305
2017-05-25T11:41:39.028Z,2445
2017-05-25T11:42:48.990Z,2535
2017-05-25T11:43:58.953Z,2710
2017-05-25T11:45:08.915Z,3155
2017-05-25T11:46:18.882Z,2995
2017-05-25T11:47:28.852Z,2875
2017-05-25T11:48:39.141Z,2595
2017-05-25T11:49:49.427Z,2890
2017-05-25T11:50:59.717Z,2835
2017-05-25T11:52:09.695Z,3210
2017-05-25T11:53:19.980Z,3125
2017-05-25T11:54:29.626Z,3150
2017-05-25T11:55:39.282Z,2925
2017-05-25T11:56:49.246Z,2600
2017-05-25T11:57:59.530Z,2775
2017-05-25T11:59:09.810Z,2840
2017-05-25T12:00:19.459Z,2990
2017-05-25T12:01:29.429Z,2615
2017-05-25T12:02:39.086Z,2570
2017-05-25T12:03:49.069Z,2910
2017-05-25T12:04:59.344Z,2860
2017-05-25T12:06:09.316Z,2890
2017-05-25T12:07:19.287Z,2720
2017-05-25T12:08:29.574Z,2580
2017-05-25T12:09:39.535Z,2485
2017-05-25T12:10:49.188Z,2025
2017-05-25T12:11:59.468Z,2325
2017-05-25T12:13:09.440Z,2085
2017-05-25T12:14:19.722Z,1765
2017-05-25T12:15:30.008Z,1535
2017-05-25T12:16:40.295Z,1830
2017-05-25T12:17:50.263Z,1795
2017-05-25T12:19:00.563Z,1750
2017-05-25T12:20:10.227Z,2395
2017-05-25T12:21:20.508Z,3005
2017-05-25T12:22:30.476Z,3375
2017-05-25T12:23:40.447Z,3540
2017-05-25T12:24:50.734Z,1790
2017-05-25T12:26:00.698Z,1505
2017-05-25T12:27:10.665Z,1785
2017-05-25T12:28:20.632Z,2575
2017-05-25T12:29:30.920Z,3125
2017-05-25T12:30:40.888Z,2920
2017-05-25T12:31:50.856Z,3025
2017-05-25T12:33:01.142Z,2910
2017-05-25T12:34:11.433Z,2745
2017-05-25T12:35:21.091Z,2595
2017-05-25T12:36:31.061Z,2785
2017-05-25T12:37:41.350Z,2630
2017-05-25T12:38:51.647Z,2575
2017-05-25T12:40:01.937Z,2655
2017-05-25T12:41:11.907Z,2390
2017-05-25T12:42:22.202Z,2540
2017-05-25T12:43:32.491Z,2485
2017-05-25T12:44:42.782Z,2430
2017-05-25T12:45:53.069Z,2370
2017-05-25T12:47:02.744Z,2180
2017-05-25T12:48:12.406Z,2190
2017-05-25T12:49:22.715Z,2235
2017-05-25T12:50:32.685Z,2240
2017-05-25T12:51:42.661Z,2190
2017-05-25T12:52:52.947Z,1985
2017-05-25T12:54:02.932Z,2190
2017-05-25T12:55:12.591Z,2515
2017-05-25T12:56:22.562Z,2685
2017-05-25T12:57:32.221Z,2730
2017-05-25T12:58:42.504Z,2975
2017-05-25T12:59:52.789Z,3365
2017-05-25T13:01:02.454Z,2975
2017-05-25T13:02:12.114Z,2475
2017-05-25T13:03:22.400Z,2605
2017-05-25T13:04:31.748Z,2925
2017-05-25T13:05:41.714Z,3010
2017-05-25T13:06:52.003Z,2930
2017-05-25T13:08:02.295Z,2985
2017-05-25T13:09:12.274Z,3100
2017-05-25T13:10:22.559Z,3290
2017-05-25T13:11:32.844Z,3535
2017-05-25T13:12:42.816Z,3485
2017-05-25T13:13:52.789Z,3295
2017-05-25T13:15:03.078Z,3085
2017-05-25T13:16:13.058Z,3425
2017-05-25T13:17:23.343Z,3710
2017-05-25T13:18:33.640Z,4020
2017-05-25T13:19:43.938Z,4045
2017-05-25T13:20:54.225Z,3970
2017-05-25T13:22:04.518Z,3585
2017-05-25T13:23:14.544Z,3165
2017-05-25T13:24:24.522Z,3205
2017-05-25T13:25:34.493Z,3170
2017-05-25T13:26:44.151Z,2980
2017-05-25T13:27:54.124Z,3155
2017-05-25T13:29:04.413Z,2985
2017-05-25T13:30:14.391Z,3045
2017-05-25T13:31:24.680Z,3065
2017-05-25T13:32:34.653Z,3120
2017-05-25T13:33:44.952Z,3305
2017-05-25T13:34:54.615Z,3180
2017-05-25T13:36:04.588Z,3140
2017-05-25T13:37:14.874Z,3355
2017-05-25T13:38:24.847Z,3450
2017-05-25T13:39:34.201Z,3520
2017-05-25T13:40:44.490Z,3055
2017-05-25T13:41:54.459Z,2955
2017-05-25T13:43:04.749Z,3275
2017-05-25T13:44:14.413Z,3165
2017-05-25T13:45:24.706Z,3155
2017-05-25T13:46:34.997Z,3020
2017-05-25T13:47:44.975Z,2640
2017-05-25T13:48:54.953Z,2735
2017-05-25T13:50:04.621Z,3165
2017-05-25T13:51:14.910Z,2885
2017-05-25T13:52:24.886Z,2850
2017-05-25T13:53:35.180Z,2730
2017-05-25T13:54:45.157Z,2245
2017-05-25T13:55:55.137Z,2205
2017-05-25T13:57:05.112Z,1620
2017-05-25T13:58:15.085Z,2400
2017-05-25T13:59:25.063Z,1950
2017-05-25T14:00:35.351Z,2305
2017-05-25T14:01:45.327Z,2445
2017-05-25T14:02:55.302Z,2055
2017-05-25T14:04:05.277Z,2475
2017-05-25T14:05:15.246Z,2565
2017-05-25T14:06:25.530Z,2495
2017-05-25T14:07:35.206Z,2695
2017-05-25T14:08:45.497Z,2430
2017-05-25T14:09:55.783Z,2545
2017-05-25T14:11:05.751Z,2005
2017-05-25T14:12:15.732Z,1625
2017-05-25T14:13:26.014Z,1450
2017-05-25T14:14:36.296Z,1260
2017-05-25T14:15:46.582Z,1065
2017-05-25T14:16:56.867Z,980
2017-05-25T14:18:07.161Z,955
2017-05-25T14:19:16.820Z,945
2017-05-25T14:20:26.787Z,925
2017-05-25T14:21:36.758Z,925
2017-05-25T14:22:46.730Z,910
2017-05-25T14:23:56.707Z,975
2017-05-25T14:25:06.990Z,1000
2017-05-25T14:26:17.275Z,980
2017-05-25T14:27:26.929Z,880
2017-05-25T14:28:37.210Z,900
2017-05-25T14:29:47.492Z,905
2017-05-25T14:30:57.461Z,850
2017-05-25T14:32:07.739Z,910
2017-05-25T14:33:17.716Z,925
2017-05-25T14:34:27.376Z,820
2017-05-25T14:35:37.723Z,980
2017-05-25T14:36:47.689Z,1545
2017-05-25T14:37:57.663Z,1865
2017-05-25T14:39:07.947Z,1200
2017-05-25T14:40:17.291Z,640
2017-05-25T14:41:26.936Z,655
2017-05-25T14:42:36.903Z,680
2017-05-25T14:43:47.183Z,675
2017-05-25T14:44:57.145Z,610
2017-05-25T14:46:07.424Z,525
2017-05-25T14:47:17.726Z,485
2017-05-25T14:48:28.006Z,485
2017-05-25T14:49:37.670Z,485
2017-05-25T14:50:47.643Z,495
2017-05-25T14:51:57.937Z,495
2017-05-25T14:53:08.222Z,485
2017-05-25T14:54:18.516Z,470
2017-05-25T14:55:28.802Z,465
2017-05-25T14:56:38.457Z,465
2017-05-25T14:57:48.744Z,465
2017-05-25T14:58:58.711Z,460
2017-05-25T15:00:08.365Z,465
2017-05-25T15:01:18.329Z,475
2017-05-25T15:02:28.607Z,475
2017-05-25T15:03:38.890Z,465
2017-05-25T15:04:49.167Z,480
2017-05-25T15:05:59.136Z,515
2017-05-25T15:07:09.407Z,545
2017-05-25T15:08:19.062Z,555
2017-05-25T15:09:29.343Z,585
2017-05-25T15:10:38.673Z,600
2017-05-25T15:11:48.946Z,610
2017-05-25T15:12:58.602Z,605
2017-05-25T15:14:08.255Z,590
2017-05-25T15:15:17.911Z,585
2017-05-25T15:16:28.189Z,585
2017-05-25T15:17:38.472Z,590
2017-05-25T15:18:48.432Z,575
2017-05-25T15:19:58.713Z,555
2017-05-25T15:21:08.361Z,550
2017-05-25T15:22:18.638Z,540
2017-05-25T15:23:28.605Z,535
2017-05-25T15:24:38.565Z,540
2017-05-25T15:25:48.536Z,550
2017-05-25T15:26:58.812Z,535
2017-05-25T15:28:08.781Z,535
2017-05-25T15:29:19.065Z,555
2017-05-25T15:30:29.342Z,580
2017-05-25T15:31:38.994Z,600
2017-05-25T15:32:48.964Z,610
2017-05-25T15:33:58.932Z,625
2017-05-25T15:35:09.209Z,640
2017-05-25T15:36:18.853Z,625
2017-05-25T15:37:29.128Z,600
2017-05-25T15:38:39.407Z,595
2017-05-25T15:39:48.743Z,610
2017-05-25T15:40:58.710Z,630
2017-05-25T15:42:08.364Z,635
2017-05-25T15:43:18.324Z,650
2017-05-25T15:44:28.285Z,670
2017-05-25T15:45:38.557Z,690
2017-05-25T15:46:48.835Z,700
2017-05-25T15:47:59.108Z,710
2017-05-25T15:49:09.439Z,715
2017-05-25T15:50:19.729Z,735
2017-05-25T15:51:29.378Z,760
2017-05-25T15:52:39.653Z,770
2017-05-25T15:53:49.633Z,765
2017-05-25T15:54:59.929Z,775
2017-05-25T15:56:09.891Z,770
2017-05-25T15:57:19.852Z,750
2017-05-25T15:58:29.813Z,715
2017-05-25T15:59:39.466Z,690
2017-05-25T16:00:49.433Z,670
2017-05-25T16:01:59.706Z,650
2017-05-25T16:03:09.692Z,630
2017-05-25T16:04:19.967Z,605
2017-05-25T16:05:30.252Z,570
2017-05-25T16:06:40.217Z,550
2017-05-25T16:07:50.184Z,540
2017-05-25T16:09:00.468Z,535
2017-05-25T16:10:10.109Z,515
2017-05-25T16:11:20.068Z,475
2017-05-25T16:12:30.033Z,445